sensor_id;sensor_type;location;lat;lon;timestamp;P1;durP1;ratioP1;P2;durP2;ratioP2
23282;SDS011;11810;51.178;3.878;2023-02-15T00:00:53;116.20;;;62.95;;
23282;SDS011;11810;51.178;3.878;2023-02-15T00:03:21;111.93;;;61.85;;
23282;SDS011;11810;51.178;3.878;2023-02-15T00:05:47;126.07;;;65.15;;
23282;SDS011;11810;51.178;3.878;2023-02-15T00:08:13;130.98;;;68.57;;
23282;SDS011;11810;51.178;3.878;2023-02-15T00:12:13;132.95;;;67.63;;
23282;SDS011;11810;51.178;3.878;2023-02-15T00:14:39;124.88;;;65.15;;
23282;SDS011;11810;51.178;3.878;2023-02-15T00:17:05;123.70;;;65.28;;
23282;SDS011;11810;51.178;3.878;2023-02-15T00:19:30;120.30;;;63.78;;
23282;SDS011;11810;51.178;3.878;2023-02-15T00:23:14;130.07;;;66.07;;
23282;SDS011;11810;51.178;3.878;2023-02-15T00:25:40;124.15;;;63.63;;
23282;SDS011;11810;51.178;3.878;2023-02-15T00:28:14;127.95;;;65.15;;
23282;SDS011;11810;51.178;3.878;2023-02-15T00:30:40;116.60;;;60.85;;
23282;SDS011;11810;51.178;3.878;2023-02-15T00:33:06;115.18;;;61.53;;
23282;SDS011;11810;51.178;3.878;2023-02-15T00:35:32;119.07;;;61.03;;
23282;SDS011;11810;51.178;3.878;2023-02-15T00:37:58;122.25;;;62.50;;
23282;SDS011;11810;51.178;3.878;2023-02-15T00:40:23;126.00;;;64.85;;
23282;SDS011;11810;51.178;3.878;2023-02-15T00:42:49;115.35;;;61.25;;
23282;SDS011;11810;51.178;3.878;2023-02-15T00:45:15;116.55;;;62.22;;
23282;SDS011;11810;51.178;3.878;2023-02-15T00:47:40;114.05;;;61.75;;
23282;SDS011;11810;51.178;3.878;2023-02-15T00:50:06;106.90;;;59.30;;
23282;SDS011;11810;51.178;3.878;2023-02-15T00:52:32;112.78;;;61.80;;
23282;SDS011;11810;51.178;3.878;2023-02-15T00:54:57;98.88;;;55.60;;
23282;SDS011;11810;51.178;3.878;2023-02-15T00:57:23;97.45;;;57.40;;
23282;SDS011;11810;51.178;3.878;2023-02-15T01:01:20;99.40;;;55.20;;
23282;SDS011;11810;51.178;3.878;2023-02-15T01:03:46;113.63;;;60.33;;
23282;SDS011;11810;51.178;3.878;2023-02-15T01:06:12;147.27;;;66.70;;
23282;SDS011;11810;51.178;3.878;2023-02-15T01:08:38;130.75;;;66.78;;
23282;SDS011;11810;51.178;3.878;2023-02-15T01:11:05;142.52;;;70.68;;
23282;SDS011;11810;51.178;3.878;2023-02-15T01:13:32;133.63;;;71.75;;
23282;SDS011;11810;51.178;3.878;2023-02-15T01:15:58;140.55;;;74.63;;
23282;SDS011;11810;51.178;3.878;2023-02-15T01:18:24;139.20;;;72.88;;
23282;SDS011;11810;51.178;3.878;2023-02-15T01:20:50;133.90;;;72.05;;
23282;SDS011;11810;51.178;3.878;2023-02-15T01:23:15;127.78;;;70.55;;
23282;SDS011;11810;51.178;3.878;2023-02-15T01:26:23;123.38;;;69.68;;
23282;SDS011;11810;51.178;3.878;2023-02-15T01:28:48;123.13;;;67.47;;
23282;SDS011;11810;51.178;3.878;2023-02-15T01:31:15;107.90;;;65.32;;
23282;SDS011;11810;51.178;3.878;2023-02-15T01:33:42;113.72;;;66.50;;
23282;SDS011;11810;51.178;3.878;2023-02-15T01:36:23;106.22;;;62.60;;
23282;SDS011;11810;51.178;3.878;2023-02-15T01:38:49;106.47;;;64.05;;
23282;SDS011;11810;51.178;3.878;2023-02-15T01:41:15;113.65;;;64.55;;
23282;SDS011;11810;51.178;3.878;2023-02-15T01:49:25;107.10;;;62.88;;
23282;SDS011;11810;51.178;3.878;2023-02-15T01:51:53;103.20;;;62.45;;
23282;SDS011;11810;51.178;3.878;2023-02-15T01:56:27;105.93;;;63.33;;
23282;SDS011;11810;51.178;3.878;2023-02-15T01:58:58;117.55;;;70.53;;
23282;SDS011;11810;51.178;3.878;2023-02-15T02:01:29;115.28;;;68.28;;
23282;SDS011;11810;51.178;3.878;2023-02-15T02:04:01;124.88;;;68.65;;
23282;SDS011;11810;51.178;3.878;2023-02-15T02:06:32;282.13;;;80.60;;
23282;SDS011;11810;51.178;3.878;2023-02-15T02:09:00;112.47;;;65.80;;
23282;SDS011;11810;51.178;3.878;2023-02-15T02:11:27;119.50;;;68.93;;
23282;SDS011;11810;51.178;3.878;2023-02-15T02:13:53;124.18;;;70.60;;
23282;SDS011;11810;51.178;3.878;2023-02-15T02:16:24;131.00;;;72.07;;
23282;SDS011;11810;51.178;3.878;2023-02-15T02:27:26;125.63;;;70.60;;
23282;SDS011;11810;51.178;3.878;2023-02-15T02:44:28;110.88;;;66.90;;
23282;SDS011;11810;51.178;3.878;2023-02-15T02:47:02;121.57;;;70.25;;
23282;SDS011;11810;51.178;3.878;2023-02-15T02:49:43;91.13;;;51.83;;
23282;SDS011;11810;51.178;3.878;2023-02-15T02:55:21;123.88;;;69.07;;
23282;SDS011;11810;51.178;3.878;2023-02-15T03:02:24;110.60;;;65.28;;
23282;SDS011;11810;51.178;3.878;2023-02-15T03:04:55;119.20;;;67.30;;
23282;SDS011;11810;51.178;3.878;2023-02-15T03:09:39;122.38;;;67.90;;
23282;SDS011;11810;51.178;3.878;2023-02-15T03:12:12;123.25;;;67.07;;
23282;SDS011;11810;51.178;3.878;2023-02-15T03:15:20;122.47;;;66.30;;
23282;SDS011;11810;51.178;3.878;2023-02-15T03:17:45;127.10;;;68.13;;
23282;SDS011;11810;51.178;3.878;2023-02-15T03:20:18;122.38;;;67.78;;
23282;SDS011;11810;51.178;3.878;2023-02-15T03:24:43;137.43;;;70.07;;
23282;SDS011;11810;51.178;3.878;2023-02-15T03:27:18;122.57;;;70.50;;
23282;SDS011;11810;51.178;3.878;2023-02-15T03:31:40;123.93;;;66.50;;
23282;SDS011;11810;51.178;3.878;2023-02-15T03:34:10;117.75;;;64.97;;
23282;SDS011;11810;51.178;3.878;2023-02-15T03:37:51;118.18;;;64.97;;
23282;SDS011;11810;51.178;3.878;2023-02-15T03:40:26;119.57;;;64.30;;
23282;SDS011;11810;51.178;3.878;2023-02-15T03:43:58;116.88;;;64.40;;
23282;SDS011;11810;51.178;3.878;2023-02-15T03:46:32;115.68;;;63.45;;
23282;SDS011;11810;51.178;3.878;2023-02-15T03:49:03;105.53;;;58.45;;
23282;SDS011;11810;51.178;3.878;2023-02-15T03:52:40;122.18;;;64.32;;
23282;SDS011;11810;51.178;3.878;2023-02-15T03:55:06;118.75;;;61.63;;
23282;SDS011;11810;51.178;3.878;2023-02-15T03:57:34;121.88;;;64.50;;
23282;SDS011;11810;51.178;3.878;2023-02-15T04:00:24;122.82;;;64.15;;
23282;SDS011;11810;51.178;3.878;2023-02-15T04:05:44;129.93;;;66.78;;
23282;SDS011;11810;51.178;3.878;2023-02-15T04:08:10;125.00;;;65.53;;
23282;SDS011;11810;51.178;3.878;2023-02-15T04:10:37;126.47;;;65.20;;
23282;SDS011;11810;51.178;3.878;2023-02-15T04:13:19;117.38;;;63.15;;
23282;SDS011;11810;51.178;3.878;2023-02-15T04:15:45;116.85;;;62.03;;
23282;SDS011;11810;51.178;3.878;2023-02-15T04:18:36;85.25;;;43.85;;
23282;SDS011;11810;51.178;3.878;2023-02-15T04:21:43;104.68;;;57.03;;
23282;SDS011;11810;51.178;3.878;2023-02-15T04:27:12;93.35;;;54.97;;
23282;SDS011;11810;51.178;3.878;2023-02-15T04:29:38;106.20;;;57.75;;
23282;SDS011;11810;51.178;3.878;2023-02-15T04:32:04;101.68;;;57.70;;
23282;SDS011;11810;51.178;3.878;2023-02-15T04:34:30;99.03;;;57.45;;
23282;SDS011;11810;51.178;3.878;2023-02-15T04:36:56;97.18;;;56.65;;
23282;SDS011;11810;51.178;3.878;2023-02-15T04:39:22;98.25;;;57.00;;
23282;SDS011;11810;51.178;3.878;2023-02-15T04:41:48;92.85;;;55.95;;
23282;SDS011;11810;51.178;3.878;2023-02-15T04:44:13;93.82;;;54.08;;
23282;SDS011;11810;51.178;3.878;2023-02-15T04:46:39;96.35;;;53.63;;
23282;SDS011;11810;51.178;3.878;2023-02-15T04:49:05;106.80;;;59.33;;
23282;SDS011;11810;51.178;3.878;2023-02-15T04:51:33;110.70;;;58.00;;
23282;SDS011;11810;51.178;3.878;2023-02-15T04:53:59;103.50;;;57.33;;
23282;SDS011;11810;51.178;3.878;2023-02-15T04:58:48;107.25;;;57.33;;
23282;SDS011;11810;51.178;3.878;2023-02-15T05:01:14;105.05;;;57.55;;
23282;SDS011;11810;51.178;3.878;2023-02-15T05:03:41;104.72;;;56.72;;
23282;SDS011;11810;51.178;3.878;2023-02-15T05:06:06;94.72;;;55.10;;
23282;SDS011;11810;51.178;3.878;2023-02-15T05:08:32;89.50;;;53.13;;
23282;SDS011;11810;51.178;3.878;2023-02-15T05:12:51;86.75;;;51.08;;
23282;SDS011;11810;51.178;3.878;2023-02-15T05:15:51;93.20;;;52.42;;
23282;SDS011;11810;51.178;3.878;2023-02-15T05:18:18;102.25;;;56.95;;
23282;SDS011;11810;51.178;3.878;2023-02-15T05:20:45;96.75;;;55.30;;
23282;SDS011;11810;51.178;3.878;2023-02-15T05:23:11;94.28;;;54.50;;
23282;SDS011;11810;51.178;3.878;2023-02-15T05:25:37;99.30;;;54.50;;
23282;SDS011;11810;51.178;3.878;2023-02-15T05:28:22;105.82;;;54.85;;
23282;SDS011;11810;51.178;3.878;2023-02-15T05:30:51;96.85;;;56.33;;
23282;SDS011;11810;51.178;3.878;2023-02-15T05:33:27;99.32;;;54.38;;
23282;SDS011;11810;51.178;3.878;2023-02-15T05:35:53;106.13;;;57.78;;
23282;SDS011;11810;51.178;3.878;2023-02-15T05:38:18;93.65;;;54.13;;
23282;SDS011;11810;51.178;3.878;2023-02-15T05:40:44;108.30;;;59.35;;
23282;SDS011;11810;51.178;3.878;2023-02-15T05:43:10;104.65;;;57.28;;
23282;SDS011;11810;51.178;3.878;2023-02-15T05:45:36;107.22;;;58.67;;
23282;SDS011;11810;51.178;3.878;2023-02-15T05:48:02;100.90;;;56.42;;
23282;SDS011;11810;51.178;3.878;2023-02-15T05:50:28;209.02;;;74.28;;
23282;SDS011;11810;51.178;3.878;2023-02-15T05:52:54;136.05;;;67.05;;
23282;SDS011;11810;51.178;3.878;2023-02-15T05:58:56;136.65;;;66.20;;
23282;SDS011;11810;51.178;3.878;2023-02-15T06:03:32;124.78;;;63.08;;
23282;SDS011;11810;51.178;3.878;2023-02-15T06:05:58;123.50;;;66.43;;
23282;SDS011;11810;51.178;3.878;2023-02-15T06:08:24;121.53;;;64.20;;
23282;SDS011;11810;51.178;3.878;2023-02-15T06:10:49;129.38;;;67.47;;
23282;SDS011;11810;51.178;3.878;2023-02-15T06:13:15;132.70;;;68.13;;
23282;SDS011;11810;51.178;3.878;2023-02-15T06:15:41;120.65;;;63.47;;
23282;SDS011;11810;51.178;3.878;2023-02-15T06:18:07;119.07;;;64.95;;
23282;SDS011;11810;51.178;3.878;2023-02-15T06:20:33;121.25;;;62.60;;
23282;SDS011;11810;51.178;3.878;2023-02-15T06:22:59;126.13;;;66.05;;
23282;SDS011;11810;51.178;3.878;2023-02-15T06:25:25;127.85;;;64.07;;
23282;SDS011;11810;51.178;3.878;2023-02-15T06:27:51;117.93;;;63.10;;
23282;SDS011;11810;51.178;3.878;2023-02-15T06:30:17;112.75;;;59.03;;
23282;SDS011;11810;51.178;3.878;2023-02-15T06:32:43;118.65;;;62.88;;
23282;SDS011;11810;51.178;3.878;2023-02-15T06:35:09;128.98;;;66.45;;
23282;SDS011;11810;51.178;3.878;2023-02-15T06:37:35;131.00;;;67.28;;
23282;SDS011;11810;51.178;3.878;2023-02-15T06:40:01;117.95;;;65.13;;
23282;SDS011;11810;51.178;3.878;2023-02-15T06:42:27;118.97;;;63.40;;
23282;SDS011;11810;51.178;3.878;2023-02-15T06:44:53;122.03;;;64.47;;
23282;SDS011;11810;51.178;3.878;2023-02-15T06:47:18;130.23;;;67.05;;
23282;SDS011;11810;51.178;3.878;2023-02-15T06:49:44;117.93;;;63.30;;
23282;SDS011;11810;51.178;3.878;2023-02-15T06:52:10;143.52;;;70.55;;
23282;SDS011;11810;51.178;3.878;2023-02-15T06:54:36;145.82;;;70.78;;
23282;SDS011;11810;51.178;3.878;2023-02-15T06:57:02;132.52;;;66.40;;
23282;SDS011;11810;51.178;3.878;2023-02-15T06:59:28;143.35;;;72.45;;
23282;SDS011;11810;51.178;3.878;2023-02-15T07:01:54;137.77;;;69.28;;
23282;SDS011;11810;51.178;3.878;2023-02-15T07:04:20;148.20;;;71.32;;
23282;SDS011;11810;51.178;3.878;2023-02-15T07:06:46;134.57;;;70.32;;
23282;SDS011;11810;51.178;3.878;2023-02-15T07:09:11;150.50;;;71.82;;
23282;SDS011;11810;51.178;3.878;2023-02-15T07:11:38;148.18;;;73.22;;
23282;SDS011;11810;51.178;3.878;2023-02-15T07:14:22;154.73;;;76.35;;
23282;SDS011;11810;51.178;3.878;2023-02-15T07:16:48;144.88;;;70.80;;
23282;SDS011;11810;51.178;3.878;2023-02-15T07:19:14;149.50;;;70.30;;
23282;SDS011;11810;51.178;3.878;2023-02-15T07:21:40;142.15;;;72.43;;
23282;SDS011;11810;51.178;3.878;2023-02-15T07:24:06;152.32;;;76.03;;
23282;SDS011;11810;51.178;3.878;2023-02-15T07:26:32;153.90;;;74.05;;
23282;SDS011;11810;51.178;3.878;2023-02-15T07:28:58;137.88;;;71.55;;
23282;SDS011;11810;51.178;3.878;2023-02-15T07:31:24;142.90;;;73.40;;
23282;SDS011;11810;51.178;3.878;2023-02-15T07:33:50;133.95;;;69.20;;
23282;SDS011;11810;51.178;3.878;2023-02-15T07:36:16;147.43;;;74.50;;
23282;SDS011;11810;51.178;3.878;2023-02-15T07:38:42;137.77;;;69.78;;
23282;SDS011;11810;51.178;3.878;2023-02-15T07:41:12;144.95;;;72.93;;
23282;SDS011;11810;51.178;3.878;2023-02-15T07:43:40;129.75;;;68.10;;
23282;SDS011;11810;51.178;3.878;2023-02-15T07:46:09;145.35;;;73.97;;
23282;SDS011;11810;51.178;3.878;2023-02-15T07:48:40;126.18;;;65.63;;
23282;SDS011;11810;51.178;3.878;2023-02-15T07:51:13;144.20;;;75.05;;
23282;SDS011;11810;51.178;3.878;2023-02-15T07:53:41;198.85;;;93.30;;
23282;SDS011;11810;51.178;3.878;2023-02-15T07:56:09;170.68;;;85.55;;
23282;SDS011;11810;51.178;3.878;2023-02-15T07:58:37;140.50;;;71.78;;
23282;SDS011;11810;51.178;3.878;2023-02-15T08:01:52;131.02;;;69.40;;
23282;SDS011;11810;51.178;3.878;2023-02-15T08:04:21;127.45;;;67.93;;
23282;SDS011;11810;51.178;3.878;2023-02-15T08:06:47;133.73;;;68.47;;
23282;SDS011;11810;51.178;3.878;2023-02-15T08:09:16;123.47;;;65.68;;
23282;SDS011;11810;51.178;3.878;2023-02-15T08:11:42;120.60;;;65.85;;
23282;SDS011;11810;51.178;3.878;2023-02-15T08:14:10;131.00;;;68.85;;
23282;SDS011;11810;51.178;3.878;2023-02-15T08:16:50;133.27;;;67.43;;
23282;SDS011;11810;51.178;3.878;2023-02-15T08:21:52;122.22;;;66.60;;
23282;SDS011;11810;51.178;3.878;2023-02-15T08:24:23;129.15;;;66.10;;
23282;SDS011;11810;51.178;3.878;2023-02-15T08:26:51;114.63;;;63.13;;
23282;SDS011;11810;51.178;3.878;2023-02-15T08:29:18;116.00;;;62.88;;
23282;SDS011;11810;51.178;3.878;2023-02-15T08:31:47;115.88;;;65.70;;
23282;SDS011;11810;51.178;3.878;2023-02-15T08:34:15;119.18;;;65.70;;
23282;SDS011;11810;51.178;3.878;2023-02-15T08:36:42;117.45;;;64.35;;
23282;SDS011;11810;51.178;3.878;2023-02-15T08:39:12;109.85;;;61.67;;
23282;SDS011;11810;51.178;3.878;2023-02-15T08:41:41;108.55;;;58.83;;
23282;SDS011;11810;51.178;3.878;2023-02-15T08:44:08;108.68;;;58.85;;
23282;SDS011;11810;51.178;3.878;2023-02-15T08:46:39;110.72;;;58.90;;
23282;SDS011;11810;51.178;3.878;2023-02-15T08:49:08;103.57;;;57.70;;
23282;SDS011;11810;51.178;3.878;2023-02-15T08:53:21;98.82;;;55.50;;
23282;SDS011;11810;51.178;3.878;2023-02-15T08:55:57;90.90;;;52.75;;
23282;SDS011;11810;51.178;3.878;2023-02-15T09:00:22;94.63;;;51.63;;
23282;SDS011;11810;51.178;3.878;2023-02-15T09:02:48;86.43;;;50.03;;
23282;SDS011;11810;51.178;3.878;2023-02-15T09:05:15;83.32;;;49.50;;
23282;SDS011;11810;51.178;3.878;2023-02-15T09:07:41;79.60;;;49.15;;
23282;SDS011;11810;51.178;3.878;2023-02-15T09:10:07;82.97;;;48.33;;
23282;SDS011;11810;51.178;3.878;2023-02-15T09:12:33;81.28;;;47.78;;
23282;SDS011;11810;51.178;3.878;2023-02-15T09:14:59;74.70;;;45.15;;
23282;SDS011;11810;51.178;3.878;2023-02-15T09:17:25;78.30;;;47.22;;
23282;SDS011;11810;51.178;3.878;2023-02-15T09:19:51;79.93;;;46.83;;
23282;SDS011;11810;51.178;3.878;2023-02-15T09:22:16;73.35;;;45.90;;
23282;SDS011;11810;51.178;3.878;2023-02-15T09:24:42;73.15;;;44.58;;
23282;SDS011;11810;51.178;3.878;2023-02-15T09:27:08;74.43;;;45.90;;
23282;SDS011;11810;51.178;3.878;2023-02-15T09:29:34;71.40;;;44.65;;
23282;SDS011;11810;51.178;3.878;2023-02-15T09:32:00;79.47;;;45.83;;
23282;SDS011;11810;51.178;3.878;2023-02-15T09:34:26;76.68;;;42.65;;
23282;SDS011;11810;51.178;3.878;2023-02-15T09:36:52;68.38;;;44.50;;
23282;SDS011;11810;51.178;3.878;2023-02-15T09:39:19;72.80;;;43.13;;
23282;SDS011;11810;51.178;3.878;2023-02-15T09:56:05;70.30;;;41.83;;
23282;SDS011;11810;51.178;3.878;2023-02-15T10:03:59;66.70;;;41.45;;
23282;SDS011;11810;51.178;3.878;2023-02-15T10:06:44;61.30;;;40.47;;
23282;SDS011;11810;51.178;3.878;2023-02-15T10:15:20;66.82;;;42.13;;
23282;SDS011;11810;51.178;3.878;2023-02-15T10:18:02;65.35;;;41.28;;
23282;SDS011;11810;51.178;3.878;2023-02-15T10:20:50;68.25;;;40.10;;
23282;SDS011;11810;51.178;3.878;2023-02-15T10:26:46;58.30;;;39.67;;
23282;SDS011;11810;51.178;3.878;2023-02-15T10:32:22;64.68;;;39.67;;
23282;SDS011;11810;51.178;3.878;2023-02-15T10:37:34;68.07;;;40.28;;
23282;SDS011;11810;51.178;3.878;2023-02-15T10:46:04;64.95;;;39.17;;
23282;SDS011;11810;51.178;3.878;2023-02-15T10:51:10;59.15;;;36.85;;
23282;SDS011;11810;51.178;3.878;2023-02-15T10:54:04;61.22;;;36.05;;
23282;SDS011;11810;51.178;3.878;2023-02-15T11:07:41;58.30;;;35.78;;
23282;SDS011;11810;51.178;3.878;2023-02-15T11:13:02;54.92;;;34.35;;
23282;SDS011;11810;51.178;3.878;2023-02-15T11:18:11;54.63;;;34.17;;
23282;SDS011;11810;51.178;3.878;2023-02-15T11:20:42;55.40;;;34.78;;
23282;SDS011;11810;51.178;3.878;2023-02-15T11:23:19;60.20;;;35.05;;
23282;SDS011;11810;51.178;3.878;2023-02-15T11:27:40;58.92;;;34.58;;
23282;SDS011;11810;51.178;3.878;2023-02-15T11:30:10;55.83;;;34.67;;
23282;SDS011;11810;51.178;3.878;2023-02-15T11:32:40;55.78;;;35.03;;
23282;SDS011;11810;51.178;3.878;2023-02-15T11:42:48;57.42;;;34.25;;
23282;SDS011;11810;51.178;3.878;2023-02-15T11:47:53;55.88;;;33.42;;
23282;SDS011;11810;51.178;3.878;2023-02-15T11:50:22;56.90;;;34.88;;
23282;SDS011;11810;51.178;3.878;2023-02-15T11:52:56;62.67;;;34.95;;
23282;SDS011;11810;51.178;3.878;2023-02-15T11:55:28;56.63;;;34.80;;
23282;SDS011;11810;51.178;3.878;2023-02-15T12:00:45;57.25;;;34.47;;
23282;SDS011;11810;51.178;3.878;2023-02-15T12:03:16;53.25;;;33.92;;
23282;SDS011;11810;51.178;3.878;2023-02-15T12:06:15;54.30;;;34.63;;
23282;SDS011;11810;51.178;3.878;2023-02-15T12:09:34;53.78;;;33.78;;
23282;SDS011;11810;51.178;3.878;2023-02-15T12:11:52;57.53;;;33.72;;
23282;SDS011;11810;51.178;3.878;2023-02-15T12:14:17;56.80;;;34.30;;
23282;SDS011;11810;51.178;3.878;2023-02-15T12:16:48;54.17;;;33.85;;
23282;SDS011;11810;51.178;3.878;2023-02-15T12:19:30;53.30;;;33.60;;
23282;SDS011;11810;51.178;3.878;2023-02-15T12:21:59;54.78;;;32.70;;
23282;SDS011;11810;51.178;3.878;2023-02-15T12:24:28;57.63;;;34.45;;
23282;SDS011;11810;51.178;3.878;2023-02-15T12:27:03;49.97;;;31.67;;
23282;SDS011;11810;51.178;3.878;2023-02-15T12:29:39;55.83;;;32.70;;
23282;SDS011;11810;51.178;3.878;2023-02-15T12:32:18;53.85;;;33.78;;
23282;SDS011;11810;51.178;3.878;2023-02-15T12:34:50;52.38;;;33.63;;
23282;SDS011;11810;51.178;3.878;2023-02-15T12:37:24;54.85;;;33.42;;
23282;SDS011;11810;51.178;3.878;2023-02-15T12:39:55;48.75;;;31.70;;
23282;SDS011;11810;51.178;3.878;2023-02-15T12:42:23;55.03;;;34.40;;
23282;SDS011;11810;51.178;3.878;2023-02-15T12:44:57;58.80;;;33.92;;
23282;SDS011;11810;51.178;3.878;2023-02-15T12:47:28;53.90;;;34.10;;
23282;SDS011;11810;51.178;3.878;2023-02-15T12:52:47;50.05;;;33.53;;
23282;SDS011;11810;51.178;3.878;2023-02-15T12:55:25;53.00;;;33.13;;
23282;SDS011;11810;51.178;3.878;2023-02-15T12:58:12;52.70;;;33.60;;
23282;SDS011;11810;51.178;3.878;2023-02-15T13:00:43;53.33;;;32.85;;
23282;SDS011;11810;51.178;3.878;2023-02-15T13:03:16;52.30;;;32.65;;
23282;SDS011;11810;51.178;3.878;2023-02-15T13:05:46;53.47;;;34.30;;
23282;SDS011;11810;51.178;3.878;2023-02-15T13:08:17;52.97;;;32.15;;
23282;SDS011;11810;51.178;3.878;2023-02-15T13:10:56;54.88;;;33.65;;
23282;SDS011;11810;51.178;3.878;2023-02-15T13:13:29;50.20;;;33.03;;
23282;SDS011;11810;51.178;3.878;2023-02-15T13:16:10;51.33;;;31.25;;
23282;SDS011;11810;51.178;3.878;2023-02-15T13:18:39;56.10;;;34.78;;
23282;SDS011;11810;51.178;3.878;2023-02-15T13:21:19;59.67;;;35.47;;
23282;SDS011;11810;51.178;3.878;2023-02-15T13:23:53;59.42;;;34.30;;
23282;SDS011;11810;51.178;3.878;2023-02-15T13:26:25;57.28;;;34.30;;
23282;SDS011;11810;51.178;3.878;2023-02-15T13:28:55;62.15;;;34.17;;
23282;SDS011;11810;51.178;3.878;2023-02-15T13:31:34;57.38;;;33.15;;
23282;SDS011;11810;51.178;3.878;2023-02-15T13:36:48;50.20;;;31.88;;
23282;SDS011;11810;51.178;3.878;2023-02-15T13:39:37;55.30;;;33.90;;
23282;SDS011;11810;51.178;3.878;2023-02-15T13:45:03;62.17;;;34.15;;
23282;SDS011;11810;51.178;3.878;2023-02-15T13:55:50;58.10;;;31.85;;
23282;SDS011;11810;51.178;3.878;2023-02-15T13:58:43;59.58;;;32.50;;
23282;SDS011;11810;51.178;3.878;2023-02-15T14:32:00;50.53;;;30.77;;
23282;SDS011;11810;51.178;3.878;2023-02-15T14:35:02;51.35;;;33.25;;
23282;SDS011;11810;51.178;3.878;2023-02-15T14:46:32;57.72;;;35.33;;
23282;SDS011;11810;51.178;3.878;2023-02-15T14:49:32;58.63;;;34.95;;
23282;SDS011;11810;51.178;3.878;2023-02-15T14:52:10;55.05;;;33.33;;
23282;SDS011;11810;51.178;3.878;2023-02-15T14:59:42;54.15;;;34.30;;
23282;SDS011;11810;51.178;3.878;2023-02-15T15:15:11;60.28;;;36.25;;
23282;SDS011;11810;51.178;3.878;2023-02-15T15:17:53;59.45;;;34.05;;
23282;SDS011;11810;51.178;3.878;2023-02-15T15:20:51;57.17;;;35.13;;
23282;SDS011;11810;51.178;3.878;2023-02-15T15:25:49;54.30;;;35.20;;
23282;SDS011;11810;51.178;3.878;2023-02-15T15:42:26;60.17;;;37.17;;
23282;SDS011;11810;51.178;3.878;2023-02-15T15:48:29;67.38;;;38.40;;
23282;SDS011;11810;51.178;3.878;2023-02-15T15:50:59;65.35;;;36.33;;
23282;SDS011;11810;51.178;3.878;2023-02-15T15:53:29;61.17;;;36.63;;
23282;SDS011;11810;51.178;3.878;2023-02-15T15:56:00;66.13;;;36.65;;
23282;SDS011;11810;51.178;3.878;2023-02-15T15:58:33;70.40;;;37.63;;
23282;SDS011;11810;51.178;3.878;2023-02-15T16:03:31;64.32;;;37.58;;
23282;SDS011;11810;51.178;3.878;2023-02-15T16:05:57;61.13;;;35.97;;
23282;SDS011;11810;51.178;3.878;2023-02-15T16:08:26;64.78;;;37.15;;
23282;SDS011;11810;51.178;3.878;2023-02-15T16:10:55;62.28;;;37.05;;
23282;SDS011;11810;51.178;3.878;2023-02-15T16:13:22;60.40;;;37.72;;
23282;SDS011;11810;51.178;3.878;2023-02-15T16:15:50;63.55;;;38.42;;
23282;SDS011;11810;51.178;3.878;2023-02-15T16:18:18;64.97;;;38.33;;
23282;SDS011;11810;51.178;3.878;2023-02-15T16:20:52;67.30;;;39.20;;
23282;SDS011;11810;51.178;3.878;2023-02-15T16:28:50;68.57;;;39.53;;
23282;SDS011;11810;51.178;3.878;2023-02-15T16:31:20;67.82;;;39.13;;
23282;SDS011;11810;51.178;3.878;2023-02-15T16:33:52;63.13;;;36.70;;
23282;SDS011;11810;51.178;3.878;2023-02-15T16:36:23;64.30;;;36.72;;
23282;SDS011;11810;51.178;3.878;2023-02-15T16:43:24;67.95;;;37.65;;
23282;SDS011;11810;51.178;3.878;2023-02-15T16:48:16;62.13;;;37.88;;
23282;SDS011;11810;51.178;3.878;2023-02-15T16:50:49;59.30;;;35.85;;
23282;SDS011;11810;51.178;3.878;2023-02-15T16:53:20;69.13;;;37.72;;
23282;SDS011;11810;51.178;3.878;2023-02-15T16:55:57;61.45;;;37.83;;
23282;SDS011;11810;51.178;3.878;2023-02-15T16:58:35;69.10;;;38.65;;
23282;SDS011;11810;51.178;3.878;2023-02-15T17:01:02;69.22;;;36.85;;
23282;SDS011;11810;51.178;3.878;2023-02-15T17:03:31;67.95;;;37.00;;
23282;SDS011;11810;51.178;3.878;2023-02-15T17:05:58;63.28;;;36.17;;
23282;SDS011;11810;51.178;3.878;2023-02-15T17:13:25;110.18;;;50.60;;
23282;SDS011;11810;51.178;3.878;2023-02-15T17:18:27;96.85;;;46.33;;
23282;SDS011;11810;51.178;3.878;2023-02-15T17:20:55;80.30;;;41.55;;
23282;SDS011;11810;51.178;3.878;2023-02-15T17:25:56;84.60;;;46.25;;
23282;SDS011;11810;51.178;3.878;2023-02-15T17:28:24;82.40;;;44.45;;
23282;SDS011;11810;51.178;3.878;2023-02-15T17:30:53;71.45;;;44.67;;
23282;SDS011;11810;51.178;3.878;2023-02-15T17:33:25;79.05;;;46.63;;
23282;SDS011;11810;51.178;3.878;2023-02-15T17:41:29;82.50;;;45.15;;
23282;SDS011;11810;51.178;3.878;2023-02-15T17:43:56;77.43;;;47.00;;
23282;SDS011;11810;51.178;3.878;2023-02-15T17:46:23;86.13;;;47.50;;
23282;SDS011;11810;51.178;3.878;2023-02-15T17:48:53;78.47;;;44.55;;
23282;SDS011;11810;51.178;3.878;2023-02-15T17:51:21;83.13;;;46.17;;
23282;SDS011;11810;51.178;3.878;2023-02-15T17:53:47;74.72;;;44.20;;
23282;SDS011;11810;51.178;3.878;2023-02-15T17:58:58;78.35;;;42.20;;
23282;SDS011;11810;51.178;3.878;2023-02-15T18:01:24;73.22;;;42.45;;
23282;SDS011;11810;51.178;3.878;2023-02-15T18:04:12;73.63;;;43.55;;
23282;SDS011;11810;51.178;3.878;2023-02-15T18:06:57;77.03;;;42.20;;
23282;SDS011;11810;51.178;3.878;2023-02-15T18:09:43;88.10;;;48.25;;
23282;SDS011;11810;51.178;3.878;2023-02-15T18:12:28;77.82;;;43.38;;
23282;SDS011;11810;51.178;3.878;2023-02-15T18:14:56;78.57;;;43.65;;
23282;SDS011;11810;51.178;3.878;2023-02-15T18:17:36;80.32;;;44.95;;
23282;SDS011;11810;51.178;3.878;2023-02-15T18:20:06;72.57;;;45.92;;
23282;SDS011;11810;51.178;3.878;2023-02-15T18:22:52;83.30;;;46.42;;
23282;SDS011;11810;51.178;3.878;2023-02-15T18:25:20;93.15;;;47.25;;
23282;SDS011;11810;51.178;3.878;2023-02-15T18:27:48;77.40;;;45.92;;
23282;SDS011;11810;51.178;3.878;2023-02-15T18:30:14;82.45;;;48.80;;
23282;SDS011;11810;51.178;3.878;2023-02-15T18:32:43;96.97;;;51.97;;
23282;SDS011;11810;51.178;3.878;2023-02-15T18:35:21;89.72;;;52.55;;
23282;SDS011;11810;51.178;3.878;2023-02-15T18:37:49;132.95;;;79.18;;
23282;SDS011;11810;51.178;3.878;2023-02-15T18:40:17;112.10;;;68.75;;
23282;SDS011;11810;51.178;3.878;2023-02-15T18:42:45;108.90;;;69.63;;
23282;SDS011;11810;51.178;3.878;2023-02-15T18:45:13;112.18;;;68.47;;
23282;SDS011;11810;51.178;3.878;2023-02-15T18:47:43;104.63;;;65.03;;
23282;SDS011;11810;51.178;3.878;2023-02-15T18:50:10;105.50;;;62.85;;
23282;SDS011;11810;51.178;3.878;2023-02-15T18:52:37;101.68;;;60.92;;
23282;SDS011;11810;51.178;3.878;2023-02-15T18:55:15;103.00;;;60.40;;
23282;SDS011;11810;51.178;3.878;2023-02-15T18:57:44;92.88;;;57.15;;
23282;SDS011;11810;51.178;3.878;2023-02-15T19:00:21;90.65;;;55.28;;
23282;SDS011;11810;51.178;3.878;2023-02-15T19:05:22;91.25;;;52.08;;
23282;SDS011;11810;51.178;3.878;2023-02-15T19:07:51;88.07;;;53.00;;
23282;SDS011;11810;51.178;3.878;2023-02-15T19:10:18;93.53;;;51.55;;
23282;SDS011;11810;51.178;3.878;2023-02-15T19:12:46;90.38;;;51.25;;
23282;SDS011;11810;51.178;3.878;2023-02-15T19:15:14;90.10;;;53.35;;